sensor_id;sensor_type;location;lat;lon;timestamp;P1;P2;P0
71794;PMS7003;59641;45.188;5.712;2024-02-14T00:02:22;11.25;10.75;7.25
71794;PMS7003;59641;45.188;5.712;2024-02-14T00:04:47;7.50;7.50;5.75
71794;PMS7003;59641;45.188;5.712;2024-02-14T00:07:13;11.25;11.00;9.00
71794;PMS7003;59641;45.188;5.712;2024-02-14T00:09:40;15.00;13.50;11.00
71794;PMS7003;59641;45.188;5.712;2024-02-14T00:12:05;14.00;13.75;10.00
71794;PMS7003;59641;45.188;5.712;2024-02-14T00:14:31;18.00;17.00;12.00
71794;PMS7003;59641;45.188;5.712;2024-02-14T00:16:57;12.75;11.00;8.00
71794;PMS7003;59641;45.188;5.712;2024-02-14T00:19:24;11.25;10.00;8.00
71794;PMS7003;59641;45.188;5.712;2024-02-14T00:21:49;12.00;10.50;7.00
71794;PMS7003;59641;45.188;5.712;2024-02-14T00:24:15;8.00;8.00;6.00
71794;PMS7003;59641;45.188;5.712;2024-02-14T00:26:41;7.50;7.00;5.25
71794;PMS7003;59641;45.188;5.712;2024-02-14T00:29:06;9.25;7.75;6.00
71794;PMS7003;59641;45.188;5.712;2024-02-14T00:31:32;11.25;9.00;7.00
71794;PMS7003;59641;45.188;5.712;2024-02-14T00:33:58;12.25;10.50;8.75
71794;PMS7003;59641;45.188;5.712;2024-02-14T00:36:23;18.00;13.50;11.50
71794;PMS7003;59641;45.188;5.712;2024-02-14T00:38:49;14.25;14.00;11.50
71794;PMS7003;59641;45.188;5.712;2024-02-14T00:41:14;13.25;13.25;9.25
71794;PMS7003;59641;45.188;5.712;2024-02-14T00:43:39;14.25;14.25;10.00
71794;PMS7003;59641;45.188;5.712;2024-02-14T00:46:05;15.00;14.00;10.00
71794;PMS7003;59641;45.188;5.712;2024-02-14T00:48:31;10.75;10.75;8.75
71794;PMS7003;59641;45.188;5.712;2024-02-14T00:50:57;13.50;10.75;8.00
71794;PMS7003;59641;45.188;5.712;2024-02-14T00:53:22;14.25;13.25;10.00
71794;PMS7003;59641;45.188;5.712;2024-02-14T00:55:47;15.25;15.25;9.75
71794;PMS7003;59641;45.188;5.712;2024-02-14T00:58:13;10.25;10.25;9.00
71794;PMS7003;59641;45.188;5.712;2024-02-14T01:00:38;9.75;8.00;6.75
71794;PMS7003;59641;45.188;5.712;2024-02-14T01:03:03;9.75;9.25;7.00
71794;PMS7003;59641;45.188;5.712;2024-02-14T01:05:29;8.00;7.25;5.75
71794;PMS7003;59641;45.188;5.712;2024-02-14T01:07:54;10.00;10.00;7.25
71794;PMS7003;59641;45.188;5.712;2024-02-14T01:10:20;7.50;7.50;6.25
71794;PMS7003;59641;45.188;5.712;2024-02-14T01:12:46;7.25;6.00;5.50
71794;PMS7003;59641;45.188;5.712;2024-02-14T01:15:11;8.00;7.00;5.75
71794;PMS7003;59641;45.188;5.712;2024-02-14T01:17:36;9.00;9.00;7.00
71794;PMS7003;59641;45.188;5.712;2024-02-14T01:20:03;9.00;9.00;7.00
71794;PMS7003;59641;45.188;5.712;2024-02-14T01:22:30;10.75;9.25;7.00
71794;PMS7003;59641;45.188;5.712;2024-02-14T01:24:56;9.50;8.00;7.00
71794;PMS7003;59641;45.188;5.712;2024-02-14T01:27:23;11.25;8.00;6.25
71794;PMS7003;59641;45.188;5.712;2024-02-14T01:29:49;7.00;6.00;5.50
71794;PMS7003;59641;45.188;5.712;2024-02-14T01:32:14;8.00;7.00;5.00
71794;PMS7003;59641;45.188;5.712;2024-02-14T01:34:39;8.50;7.50;5.00
71794;PMS7003;59641;45.188;5.712;2024-02-14T01:37:06;12.25;10.25;5.25
71794;PMS7003;59641;45.188;5.712;2024-02-14T01:39:31;6.00;5.25;4.75
71794;PMS7003;59641;45.188;5.712;2024-02-14T01:41:57;6.00;5.75;5.00
71794;PMS7003;59641;45.188;5.712;2024-02-14T01:44:22;5.75;5.75;4.00
71794;PMS7003;59641;45.188;5.712;2024-02-14T01:46:47;6.25;6.00;5.00
71794;PMS7003;59641;45.188;5.712;2024-02-14T01:49:13;6.00;5.25;3.50
71794;PMS7003;59641;45.188;5.712;2024-02-14T01:51:41;4.00;3.00;2.00
71794;PMS7003;59641;45.188;5.712;2024-02-14T01:54:10;4.50;4.50;4.00
71794;PMS7003;59641;45.188;5.712;2024-02-14T01:56:37;7.00;6.25;4.00
71794;PMS7003;59641;45.188;5.712;2024-02-14T01:59:04;8.50;6.75;5.50
71794;PMS7003;59641;45.188;5.712;2024-02-14T02:01:31;6.40;6.40;3.00
71794;PMS7003;59641;45.188;5.712;2024-02-14T02:03:57;6.50;5.75;5.00
71794;PMS7003;59641;45.188;5.712;2024-02-14T02:06:23;6.00;6.00;5.00
71794;PMS7003;59641;45.188;5.712;2024-02-14T02:08:51;9.00;7.00;5.00
71794;PMS7003;59641;45.188;5.712;2024-02-14T02:11:16;5.75;5.75;4.00
71794;PMS7003;59641;45.188;5.712;2024-02-14T02:13:42;6.50;5.00;5.00
71794;PMS7003;59641;45.188;5.712;2024-02-14T02:16:07;7.50;7.00;5.00
71794;PMS7003;59641;45.188;5.712;2024-02-14T02:18:33;7.00;6.00;5.00
71794;PMS7003;59641;45.188;5.712;2024-02-14T02:20:58;5.50;5.00;4.00
71794;PMS7003;59641;45.188;5.712;2024-02-14T02:23:23;6.75;6.50;5.25
71794;PMS7003;59641;45.188;5.712;2024-02-14T02:25:49;8.50;8.00;5.75
71794;PMS7003;59641;45.188;5.712;2024-02-14T02:28:15;13.00;9.00;6.50
71794;PMS7003;59641;45.188;5.712;2024-02-14T02:30:41;16.25;14.75;12.00
71794;PMS7003;59641;45.188;5.712;2024-02-14T02:33:06;16.25;13.75;12.00
71794;PMS7003;59641;45.188;5.712;2024-02-14T02:35:32;12.75;12.75;10.75
71794;PMS7003;59641;45.188;5.712;2024-02-14T02:37:58;20.00;17.25;14.25
71794;PMS7003;59641;45.188;5.712;2024-02-14T02:40:24;19.25;17.75;14.25
71794;PMS7003;59641;45.188;5.712;2024-02-14T02:42:49;17.50;15.50;12.25
71794;PMS7003;59641;45.188;5.712;2024-02-14T02:45:16;17.25;16.25;13.25
71794;PMS7003;59641;45.188;5.712;2024-02-14T02:47:42;17.00;17.00;13.00
71794;PMS7003;59641;45.188;5.712;2024-02-14T02:50:07;13.25;13.25;11.25
71794;PMS7003;59641;45.188;5.712;2024-02-14T02:52:33;15.50;12.50;10.75
71794;PMS7003;59641;45.188;5.712;2024-02-14T02:54:59;13.50;11.75;9.00
71794;PMS7003;59641;45.188;5.712;2024-02-14T02:57:26;11.75;11.25;9.00
71794;PMS7003;59641;45.188;5.712;2024-02-14T02:59:51;11.00;10.00;8.00
71794;PMS7003;59641;45.188;5.712;2024-02-14T03:02:17;14.75;11.75;8.75
71794;PMS7003;59641;45.188;5.712;2024-02-14T03:04:44;12.00;12.00;9.00
71794;PMS7003;59641;45.188;5.712;2024-02-14T03:07:10;10.00;10.00;9.00
71794;PMS7003;59641;45.188;5.712;2024-02-14T03:09:35;8.50;7.75;6.75
71794;PMS7003;59641;45.188;5.712;2024-02-14T03:12:03;12.25;10.50;6.50
71794;PMS7003;59641;45.188;5.712;2024-02-14T03:14:30;10.00;8.00;7.00
71794;PMS7003;59641;45.188;5.712;2024-02-14T03:16:57;7.00;6.00;5.00
71794;PMS7003;59641;45.188;5.712;2024-02-14T03:19:26;5.80;5.20;4.60
71794;PMS7003;59641;45.188;5.712;2024-02-14T03:21:52;7.25;7.00;4.00
71794;PMS7003;59641;45.188;5.712;2024-02-14T03:24:18;8.25;7.00;5.00
71794;PMS7003;59641;45.188;5.712;2024-02-14T03:26:44;8.75;6.25;5.00
71794;PMS7003;59641;45.188;5.712;2024-02-14T03:29:09;5.75;5.75;4.00
71794;PMS7003;59641;45.188;5.712;2024-02-14T03:31:35;10.00;7.50;5.75
71794;PMS7003;59641;45.188;5.712;2024-02-14T03:34:01;8.50;7.00;6.00
71794;PMS7003;59641;45.188;5.712;2024-02-14T03:36:26;5.00;5.00;3.75
71794;PMS7003;59641;45.188;5.712;2024-02-14T03:38:59;6.00;6.00;5.00
71794;PMS7003;59641;45.188;5.712;2024-02-14T03:41:29;5.25;5.25;4.00
71794;PMS7003;59641;45.188;5.712;2024-02-14T03:43:54;6.25;6.00;5.00
71794;PMS7003;59641;45.188;5.712;2024-02-14T03:46:23;4.50;4.50;3.75
71794;PMS7003;59641;45.188;5.712;2024-02-14T03:48:48;4.50;4.00;3.75
71794;PMS7003;59641;45.188;5.712;2024-02-14T03:51:14;5.00;5.00;3.75
71794;PMS7003;59641;45.188;5.712;2024-02-14T03:53:40;5.75;4.75;3.75
71794;PMS7003;59641;45.188;5.712;2024-02-14T03:56:06;4.25;3.25;3.00
71794;PMS7003;59641;45.188;5.712;2024-02-14T03:58:34;4.60;4.40;3.20
71794;PMS7003;59641;45.188;5.712;2024-02-14T04:01:02;5.00;4.40;3.20
71794;PMS7003;59641;45.188;5.712;2024-02-14T04:03:28;5.25;3.25;3.00
71794;PMS7003;59641;45.188;5.712;2024-02-14T04:05:54;4.75;4.00;3.00
71794;PMS7003;59641;45.188;5.712;2024-02-14T04:08:20;4.00;4.00;3.00
71794;PMS7003;59641;45.188;5.712;2024-02-14T04:10:45;5.75;5.00;4.00
71794;PMS7003;59641;45.188;5.712;2024-02-14T04:13:11;5.00;5.00;3.75
71794;PMS7003;59641;45.188;5.712;2024-02-14T04:15:36;4.50;4.50;3.25
71794;PMS7003;59641;45.188;5.712;2024-02-14T04:18:02;6.25;6.25;4.50
71794;PMS7003;59641;45.188;5.712;2024-02-14T04:20:28;5.20;5.20;4.00
71794;PMS7003;59641;45.188;5.712;2024-02-14T04:22:54;6.25;6.25;4.00
71794;PMS7003;59641;45.188;5.712;2024-02-14T04:25:19;7.00;6.50;5.00
71794;PMS7003;59641;45.188;5.712;2024-02-14T04:27:44;6.00;5.25;3.00
71794;PMS7003;59641;45.188;5.712;2024-02-14T04:30:10;6.50;6.25;4.50
71794;PMS7003;59641;45.188;5.712;2024-02-14T04:32:36;4.00;4.00;3.75
71794;PMS7003;59641;45.188;5.712;2024-02-14T04:35:01;4.00;4.00;2.25
71794;PMS7003;59641;45.188;5.712;2024-02-14T04:37:26;4.00;4.00;3.25
71794;PMS7003;59641;45.188;5.712;2024-02-14T04:39:52;6.25;5.00;3.00
71794;PMS7003;59641;45.188;5.712;2024-02-14T04:42:18;5.00;5.00;3.00
71794;PMS7003;59641;45.188;5.712;2024-02-14T04:44:43;4.00;3.00;2.50
71794;PMS7003;59641;45.188;5.712;2024-02-14T04:47:08;5.00;5.00;4.00
71794;PMS7003;59641;45.188;5.712;2024-02-14T04:49:37;3.20;3.20;3.00
71794;PMS7003;59641;45.188;5.712;2024-02-14T04:52:02;5.25;4.75;4.00
71794;PMS7003;59641;45.188;5.712;2024-02-14T04:54:29;1.00;1.00;0.20
71794;PMS7003;59641;45.188;5.712;2024-02-14T04:56:54;3.00;3.00;2.25
71794;PMS7003;59641;45.188;5.712;2024-02-14T04:59:20;3.50;3.50;2.75
71794;PMS7003;59641;45.188;5.712;2024-02-14T05:01:45;4.00;4.00;2.75
71794;PMS7003;59641;45.188;5.712;2024-02-14T05:04:11;5.50;5.00;3.75
71794;PMS7003;59641;45.188;5.712;2024-02-14T05:06:37;3.80;3.20;2.40
71794;PMS7003;59641;45.188;5.712;2024-02-14T05:09:03;4.25;3.00;2.00
71794;PMS7003;59641;45.188;5.712;2024-02-14T05:11:29;2.50;2.50;2.25
71794;PMS7003;59641;45.188;5.712;2024-02-14T05:13:54;4.25;3.50;3.25
71794;PMS7003;59641;45.188;5.712;2024-02-14T05:16:20;5.00;4.25;3.75
71794;PMS7003;59641;45.188;5.712;2024-02-14T05:18:45;5.25;5.25;4.75
71794;PMS7003;59641;45.188;5.712;2024-02-14T05:21:11;6.75;6.75;5.00
71794;PMS7003;59641;45.188;5.712;2024-02-14T05:23:37;8.75;7.00;6.00
71794;PMS7003;59641;45.188;5.712;2024-02-14T05:26:02;10.25;6.50;5.25
71794;PMS7003;59641;45.188;5.712;2024-02-14T05:28:28;10.75;7.75;6.50
71794;PMS7003;59641;45.188;5.712;2024-02-14T05:30:54;9.75;9.00;7.00
71794;PMS7003;59641;45.188;5.712;2024-02-14T05:33:19;14.50;11.75;9.00
71794;PMS7003;59641;45.188;5.712;2024-02-14T05:35:47;12.75;10.50;8.75
71794;PMS7003;59641;45.188;5.712;2024-02-14T05:38:17;12.75;12.25;9.00
71794;PMS7003;59641;45.188;5.712;2024-02-14T05:40:44;14.50;13.00;11.00
71794;PMS7003;59641;45.188;5.712;2024-02-14T05:43:10;15.00;14.00;11.25
71794;PMS7003;59641;45.188;5.712;2024-02-14T05:45:36;16.75;15.75;12.75
71794;PMS7003;59641;45.188;5.712;2024-02-14T05:48:02;16.50;15.50;12.00
71794;PMS7003;59641;45.188;5.712;2024-02-14T05:50:28;17.50;17.50;13.00
71794;PMS7003;59641;45.188;5.712;2024-02-14T05:52:53;18.50;14.00;11.25
71794;PMS7003;59641;45.188;5.712;2024-02-14T05:55:19;17.50;15.75;12.00
71794;PMS7003;59641;45.188;5.712;2024-02-14T05:57:44;17.00;15.00;11.00
71794;PMS7003;59641;45.188;5.712;2024-02-14T06:00:09;12.00;12.00;9.75
71794;PMS7003;59641;45.188;5.712;2024-02-14T06:02:37;11.75;10.00;8.25
71794;PMS7003;59641;45.188;5.712;2024-02-14T06:05:04;12.00;10.50;8.75
71794;PMS7003;59641;45.188;5.712;2024-02-14T06:07:33;12.25;10.75;8.50
71794;PMS7003;59641;45.188;5.712;2024-02-14T06:09:59;10.75;10.00;8.25
71794;PMS7003;59641;45.188;5.712;2024-02-14T06:12:24;11.00;10.00;7.75
71794;PMS7003;59641;45.188;5.712;2024-02-14T06:14:49;6.00;6.00;5.00
71794;PMS7003;59641;45.188;5.712;2024-02-14T06:17:15;6.75;6.75;4.75
71794;PMS7003;59641;45.188;5.712;2024-02-14T06:19:41;5.00;5.00;3.00
71794;PMS7003;59641;45.188;5.712;2024-02-14T06:22:06;3.00;3.00;3.00
71794;PMS7003;59641;45.188;5.712;2024-02-14T06:24:32;4.00;3.00;3.00
71794;PMS7003;59641;45.188;5.712;2024-02-14T06:26:57;5.00;4.25;3.00
71794;PMS7003;59641;45.188;5.712;2024-02-14T06:29:22;5.00;4.50;3.75
71794;PMS7003;59641;45.188;5.712;2024-02-14T06:31:48;5.00;5.00;3.00
71794;PMS7003;59641;45.188;5.712;2024-02-14T06:34:14;3.60;2.40;2.00
71794;PMS7003;59641;45.188;5.712;2024-02-14T06:36:39;4.25;4.25;3.00
71794;PMS7003;59641;45.188;5.712;2024-02-14T06:39:06;3.75;3.75;3.00
71794;PMS7003;59641;45.188;5.712;2024-02-14T06:41:32;3.75;3.50;3.00
71794;PMS7003;59641;45.188;5.712;2024-02-14T06:43:57;5.00;3.75;2.75
71794;PMS7003;59641;45.188;5.712;2024-02-14T06:46:23;4.50;3.25;2.00
71794;PMS7003;59641;45.188;5.712;2024-02-14T06:48:48;4.50;4.50;3.00
71794;PMS7003;59641;45.188;5.712;2024-02-14T06:51:13;4.50;4.00;3.00
71794;PMS7003;59641;45.188;5.712;2024-02-14T06:53:39;4.75;4.75;3.50
71794;PMS7003;59641;45.188;5.712;2024-02-14T06:56:04;7.00;5.75;4.75
71794;PMS7003;59641;45.188;5.712;2024-02-14T06:58:30;4.50;4.50;4.00
71794;PMS7003;59641;45.188;5.712;2024-02-14T07:00:55;4.75;4.00;3.50
71794;PMS7003;59641;45.188;5.712;2024-02-14T07:03:21;8.00;6.75;4.75
71794;PMS7003;59641;45.188;5.712;2024-02-14T07:05:46;7.00;7.00;5.00
71794;PMS7003;59641;45.188;5.712;2024-02-14T07:08:12;7.75;6.75;5.50
71794;PMS7003;59641;45.188;5.712;2024-02-14T07:10:37;9.25;6.75;4.50
71794;PMS7003;59641;45.188;5.712;2024-02-14T07:13:02;6.50;6.00;3.25
71794;PMS7003;59641;45.188;5.712;2024-02-14T07:15:28;6.25;5.50;3.75
71794;PMS7003;59641;45.188;5.712;2024-02-14T07:17:56;6.50;5.00;4.00
71794;PMS7003;59641;45.188;5.712;2024-02-14T07:20:23;7.75;7.75;5.50
71794;PMS7003;59641;45.188;5.712;2024-02-14T07:22:51;5.50;4.75;3.25
71794;PMS7003;59641;45.188;5.712;2024-02-14T07:25:18;8.00;6.75;4.75
71794;PMS7003;59641;45.188;5.712;2024-02-14T07:27:44;9.00;6.75;4.00
71794;PMS7003;59641;45.188;5.712;2024-02-14T07:30:11;6.00;4.00;3.50
71794;PMS7003;59641;45.188;5.712;2024-02-14T07:32:37;6.00;5.00;3.00
71794;PMS7003;59641;45.188;5.712;2024-02-14T07:35:03;7.25;5.00;4.75
71794;PMS7003;59641;45.188;5.712;2024-02-14T07:37:30;5.50;5.00;3.00
71794;PMS7003;59641;45.188;5.712;2024-02-14T07:39:55;5.25;5.25;4.00
71794;PMS7003;59641;45.188;5.712;2024-02-14T07:42:20;8.50;7.00;4.00
71794;PMS7003;59641;45.188;5.712;2024-02-14T07:44:46;9.25;6.00;4.00
71794;PMS7003;59641;45.188;5.712;2024-02-14T07:47:11;7.00;7.00;5.25
71794;PMS7003;59641;45.188;5.712;2024-02-14T07:49:36;6.25;5.00;4.00
71794;PMS7003;59641;45.188;5.712;2024-02-14T07:52:02;8.00;6.25;4.50
71794;PMS7003;59641;45.188;5.712;2024-02-14T07:54:28;7.75;5.00;4.00
71794;PMS7003;59641;45.188;5.712;2024-02-14T07:56:53;5.75;5.75;3.75
71794;PMS7003;59641;45.188;5.712;2024-02-14T07:59:18;7.50;7.50;5.00
71794;PMS7003;59641;45.188;5.712;2024-02-14T08:01:45;6.00;5.50;4.75
71794;PMS7003;59641;45.188;5.712;2024-02-14T08:04:11;9.75;7.00;5.00
71794;PMS7003;59641;45.188;5.712;2024-02-14T08:06:36;7.00;5.00;4.00
71794;PMS7003;59641;45.188;5.712;2024-02-14T08:09:01;9.25;7.00;5.75
71794;PMS7003;59641;45.188;5.712;2024-02-14T08:11:31;7.75;7.75;4.50
71794;PMS7003;59641;45.188;5.712;2024-02-14T08:13:56;9.00;8.00;6.00
71794;PMS7003;59641;45.188;5.712;2024-02-14T08:16:23;11.00;9.25;7.00
71794;PMS7003;59641;45.188;5.712;2024-02-14T08:18:49;9.00;7.00;6.00
71794;PMS7003;59641;45.188;5.712;2024-02-14T08:21:15;5.00;5.00;3.00
71794;PMS7003;59641;45.188;5.712;2024-02-14T08:23:41;6.00;6.00;4.75
71794;PMS7003;59641;45.188;5.712;2024-02-14T08:26:07;4.00;4.00;3.00
71794;PMS7003;59641;45.188;5.712;2024-02-14T08:28:36;5.75;5.00;4.00
71794;PMS7003;59641;45.188;5.712;2024-02-14T08:31:01;9.00;6.00;5.00
71794;PMS7003;59641;45.188;5.712;2024-02-14T08:33:27;6.50;6.00;4.00
71794;PMS7003;59641;45.188;5.712;2024-02-14T08:35:52;7.25;7.25;5.00
71794;PMS7003;59641;45.188;5.712;2024-02-14T08:38:22;6.50;6.50;4.00
71794;PMS7003;59641;45.188;5.712;2024-02-14T08:40:48;8.00;7.50;5.75
71794;PMS7003;59641;45.188;5.712;2024-02-14T08:43:13;8.75;8.00;6.00
71794;PMS7003;59641;45.188;5.712;2024-02-14T08:45:39;10.00;7.75;6.00
71794;PMS7003;59641;45.188;5.712;2024-02-14T08:48:04;9.50;8.00;6.00
71794;PMS7003;59641;45.188;5.712;2024-02-14T08:50:30;4.50;4.00;3.50
71794;PMS7003;59641;45.188;5.712;2024-02-14T08:52:55;7.50;6.00;4.25
71794;PMS7003;59641;45.188;5.712;2024-02-14T08:55:21;8.50;6.00;5.00
71794;PMS7003;59641;45.188;5.712;2024-02-14T08:57:46;6.25;6.00;4.00
71794;PMS7003;59641;45.188;5.712;2024-02-14T09:00:14;6.00;6.00;4.00
71794;PMS7003;59641;45.188;5.712;2024-02-14T09:02:44;5.75;5.50;5.00
71794;PMS7003;59641;45.188;5.712;2024-02-14T09:05:09;7.00;5.00;4.00
71794;PMS7003;59641;45.188;5.712;2024-02-14T09:07:35;5.00;5.00;4.00
71794;PMS7003;59641;45.188;5.712;2024-02-14T09:10:01;7.60;7.00;4.00
71794;PMS7003;59641;45.188;5.712;2024-02-14T09:12:26;6.25;5.00;4.00
71794;PMS7003;59641;45.188;5.712;2024-02-14T09:14:52;7.50;7.25;4.50
71794;PMS7003;59641;45.188;5.712;2024-02-14T09:17:17;7.00;7.00;5.25
71794;PMS7003;59641;45.188;5.712;2024-02-14T09:19:42;8.00;6.00;5.00
71794;PMS7003;59641;45.188;5.712;2024-02-14T09:22:08;6.75;6.75;5.50
71794;PMS7003;59641;45.188;5.712;2024-02-14T09:24:33;10.50;8.00;7.00
71794;PMS7003;59641;45.188;5.712;2024-02-14T09:26:58;10.00;8.00;5.50
71794;PMS7003;59641;45.188;5.712;2024-02-14T09:29:24;6.25;6.00;4.00
71794;PMS7003;59641;45.188;5.712;2024-02-14T09:31:50;6.75;6.25;4.75
71794;PMS7003;59641;45.188;5.712;2024-02-14T09:34:16;7.00;7.00;5.75
71794;PMS7003;59641;45.188;5.712;2024-02-14T09:36:44;8.50;8.50;6.50
71794;PMS7003;59641;45.188;5.712;2024-02-14T09:39:09;9.00;7.00;6.00
71794;PMS7003;59641;45.188;5.712;2024-02-14T09:41:40;9.00;8.00;7.00
71794;PMS7003;59641;45.188;5.712;2024-02-14T09:44:08;11.00;9.75;7.00
71794;PMS7003;59641;45.188;5.712;2024-02-14T09:46:35;6.50;6.50;4.25
71794;PMS7003;59641;45.188;5.712;2024-02-14T09:49:01;7.80;7.80;6.00
71794;PMS7003;59641;45.188;5.712;2024-02-14T09:51:29;8.20;7.60;6.20
71794;PMS7003;59641;45.188;5.712;2024-02-14T09:53:54;8.00;8.00;6.25
71794;PMS7003;59641;45.188;5.712;2024-02-14T09:56:20;7.00;6.00;5.00
71794;PMS7003;59641;45.188;5.712;2024-02-14T09:58:49;8.80;7.00;6.00
71794;PMS7003;59641;45.188;5.712;2024-02-14T10:01:20;8.50;8.50;6.25
71794;PMS7003;59641;45.188;5.712;2024-02-14T10:03:48;9.75;6.75;4.50
71794;PMS7003;59641;45.188;5.712;2024-02-14T10:06:17;4.00;4.00;2.00
71794;PMS7003;59641;45.188;5.712;2024-02-14T10:08:46;6.50;6.00;4.75
71794;PMS7003;59641;45.188;5.712;2024-02-14T10:11:13;10.00;7.00;5.60
71794;PMS7003;59641;45.188;5.712;2024-02-14T10:13:40;7.25;7.25;6.00
71794;PMS7003;59641;45.188;5.712;2024-02-14T10:16:06;7.00;6.25;5.25
71794;PMS7003;59641;45.188;5.712;2024-02-14T10:18:33;7.60;6.80;5.20
71794;PMS7003;59641;45.188;5.712;2024-02-14T10:20:59;6.25;6.00;4.00
71794;PMS7003;59641;45.188;5.712;2024-02-14T10:23:26;6.25;6.25;4.25
71794;PMS7003;59641;45.188;5.712;2024-02-14T10:25:52;6.00;6.00;5.00
71794;PMS7003;59641;45.188;5.712;2024-02-14T10:28:20;6.80;6.60;4.20
71794;PMS7003;59641;45.188;5.712;2024-02-14T10:30:47;6.40;6.00;4.00
71794;PMS7003;59641;45.188;5.712;2024-02-14T10:33:14;5.00;5.00;4.25
71794;PMS7003;59641;45.188;5.712;2024-02-14T10:35:44;6.00;5.75;4.00
71794;PMS7003;59641;45.188;5.712;2024-02-14T10:38:09;6.00;4.50;4.25
71794;PMS7003;59641;45.188;5.712;2024-02-14T10:40:37;6.80;5.60;4.80
71794;PMS7003;59641;45.188;5.712;2024-02-14T10:43:07;6.75;5.50;4.00
71794;PMS7003;59641;45.188;5.712;2024-02-14T10:45:37;5.75;5.75;4.00
71794;PMS7003;59641;45.188;5.712;2024-02-14T10:48:04;6.50;5.75;4.25
71794;PMS7003;59641;45.188;5.712;2024-02-14T10:50:32;5.80;4.80;4.60
71794;PMS7003;59641;45.188;5.712;2024-02-14T10:53:00;8.80;5.00;3.60
71794;PMS7003;59641;45.188;5.712;2024-02-14T10:55:30;4.00;4.00;2.75
71794;PMS7003;59641;45.188;5.712;2024-02-14T10:57:57;6.00;6.00;5.50
71794;PMS7003;59641;45.188;5.712;2024-02-14T11:00:22;8.00;7.00;5.80
71794;PMS7003;59641;45.188;5.712;2024-02-14T11:02:49;8.00;8.00;5.00
71794;PMS7003;59641;45.188;5.712;2024-02-14T11:05:16;7.00;6.00;5.00
71794;PMS7003;59641;45.188;5.712;2024-02-14T11:07:47;6.00;5.20;4.00
71794;PMS7003;59641;45.188;5.712;2024-02-14T11:10:14;5.60;3.60;2.80
71794;PMS7003;59641;45.188;5.712;2024-02-14T11:12:41;5.60;5.00;4.00
71794;PMS7003;59641;45.188;5.712;2024-02-14T11:15:16;5.00;5.00;3.25
71794;PMS7003;59641;45.188;5.712;2024-02-14T11:17:43;4.00;4.00;3.00
71794;PMS7003;59641;45.188;5.712;2024-02-14T11:20:15;4.00;4.00;3.25
71794;PMS7003;59641;45.188;5.712;2024-02-14T11:25:31;3.80;3.80;2.80
71794;PMS7003;59641;45.188;5.712;2024-02-14T11:28:01;3.00;1.80;1.80
71794;PMS7003;59641;45.188;5.712;2024-02-14T11:30:39;4.20;2.00;1.00
71794;PMS7003;59641;45.188;5.712;2024-02-14T11:33:22;2.40;2.20;2.00
71794;PMS7003;59641;45.188;5.712;2024-02-14T11:35:52;3.00;3.00;1.80
71794;PMS7003;59641;45.188;5.712;2024-02-14T11:38:19;1.00;1.00;1.00
71794;PMS7003;59641;45.188;5.712;2024-02-14T11:40:45;2.00;2.00;1.00
71794;PMS7003;59641;45.188;5.712;2024-02-14T11:43:11;0.50;0.50;0.50
71794;PMS7003;59641;45.188;5.712;2024-02-14T11:45:46;1.60;1.60;1.40
71794;PMS7003;59641;45.188;5.712;2024-02-14T11:48:15;1.40;1.40;0.60
71794;PMS7003;59641;45.188;5.712;2024-02-14T11:50:51;1.00;1.00;1.00
71794;PMS7003;59641;45.188;5.712;2024-02-14T11:53:18;3.00;3.00;2.00
71794;PMS7003;59641;45.188;5.712;2024-02-14T11:55:45;2.40;0.80;0.80
71794;PMS7003;59641;45.188;5.712;2024-02-14T11:58:14;2.20;2.20;1.80
71794;PMS7003;59641;45.188;5.712;2024-02-14T12:00:41;2.80;2.00;1.80
71794;PMS7003;59641;45.188;5.712;2024-02-14T12:03:11;3.40;2.00;1.80
71794;PMS7003;59641;45.188;5.712;2024-02-14T12:05:37;1.00;1.00;1.00
71794;PMS7003;59641;45.188;5.712;2024-02-14T12:08:06;1.75;1.25;0.50
71794;PMS7003;59641;45.188;5.712;2024-02-14T12:10:32;0.40;0.40;0.40
71794;PMS7003;59641;45.188;5.712;2024-02-14T12:12:58;1.75;1.00;0.00
71794;PMS7003;59641;45.188;5.712;2024-02-14T12:15:29;1.40;1.40;0.40
71794;PMS7003;59641;45.188;5.712;2024-02-14T12:17:54;2.00;2.00;1.00
71794;PMS7003;59641;45.188;5.712;2024-02-14T12:20:21;1.00;1.00;0.00
71794;PMS7003;59641;45.188;5.712;2024-02-14T12:22:51;2.20;1.20;1.20
71794;PMS7003;59641;45.188;5.712;2024-02-14T12:25:16;1.00;1.00;1.00
71794;PMS7003;59641;45.188;5.712;2024-02-14T12:27:42;2.00;1.40;1.00
71794;PMS7003;59641;45.188;5.712;2024-02-14T12:30:16;2.20;2.00;1.20
71794;PMS7003;59641;45.188;5.712;2024-02-14T12:32:42;1.20;0.60;0.60
71794;PMS7003;59641;45.188;5.712;2024-02-14T12:35:08;1.75;1.25;0.50
71794;PMS7003;59641;45.188;5.712;2024-02-14T12:37:33;3.50;2.00;2.00
71794;PMS7003;59641;45.188;5.712;2024-02-14T12:39:59;2.50;2.50;2.50
71794;PMS7003;59641;45.188;5.712;2024-02-14T12:42:24;4.00;4.00;3.00
71794;PMS7003;59641;45.188;5.712;2024-02-14T12:44:53;3.40;2.80;2.80
71794;PMS7003;59641;45.188;5.712;2024-02-14T12:47:19;3.00;3.00;2.20
71794;PMS7003;59641;45.188;5.712;2024-02-14T12:49:46;2.20;2.20;1.60
71794;PMS7003;59641;45.188;5.712;2024-02-14T12:52:13;1.80;1.80;1.00
71794;PMS7003;59641;45.188;5.712;2024-02-14T12:54:39;4.00;3.25;2.25
71794;PMS7003;59641;45.188;5.712;2024-02-14T12:57:04;2.25;2.25;1.75
71794;PMS7003;59641;45.188;5.712;2024-02-14T12:59:31;3.20;3.00;1.60
71794;PMS7003;59641;45.188;5.712;2024-02-14T13:01:57;1.25;1.25;1.00
71794;PMS7003;59641;45.188;5.712;2024-02-14T13:04:22;1.25;1.25;0.25
71794;PMS7003;59641;45.188;5.712;2024-02-14T13:06:47;0.75;0.75;0.00
71794;PMS7003;59641;45.188;5.712;2024-02-14T13:09:13;1.50;1.00;0.00
71794;PMS7003;59641;45.188;5.712;2024-02-14T13:11:39;1.40;1.20;1.00
71794;PMS7003;59641;45.188;5.712;2024-02-14T13:14:06;2.40;1.40;1.00
71794;PMS7003;59641;45.188;5.712;2024-02-14T13:16:31;3.25;2.00;1.00
71794;PMS7003;59641;45.188;5.712;2024-02-14T13:18:57;2.75;1.00;0.50
71794;PMS7003;59641;45.188;5.712;2024-02-14T13:21:22;4.00;2.50;1.25
71794;PMS7003;59641;45.188;5.712;2024-02-14T13:23:47;3.25;3.00;2.00
71794;PMS7003;59641;45.188;5.712;2024-02-14T13:26:13;3.75;2.00;1.25
71794;PMS7003;59641;45.188;5.712;2024-02-14T13:28:39;2.00;1.60;1.00
71794;PMS7003;59641;45.188;5.712;2024-02-14T13:31:05;2.60;2.60;1.00
71794;PMS7003;59641;45.188;5.712;2024-02-14T13:33:31;0.00;0.00;0.00
71794;PMS7003;59641;45.188;5.712;2024-02-14T13:35:56;0.50;0.50;0.00
71794;PMS7003;59641;45.188;5.712;2024-02-14T13:38:21;1.00;1.00;0.00
71794;PMS7003;59641;45.188;5.712;2024-02-14T13:40:47;1.75;1.25;0.25
71794;PMS7003;59641;45.188;5.712;2024-02-14T13:43:13;1.00;1.00;0.00
71794;PMS7003;59641;45.188;5.712;2024-02-14T13:45:42;0.00;0.00;0.00
71794;PMS7003;59641;45.188;5.712;2024-02-14T13:48:09;1.00;1.00;0.60
71794;PMS7003;59641;45.188;5.712;2024-02-14T13:50:35;1.20;1.20;1.00
71794;PMS7003;59641;45.188;5.712;2024-02-14T13:53:00;3.00;3.00;2.00
71794;PMS7003;59641;45.188;5.712;2024-02-14T13:55:26;1.00;1.00;1.00
71794;PMS7003;59641;45.188;5.712;2024-02-14T13:57:51;2.00;2.00;1.50
71794;PMS7003;59641;45.188;5.712;2024-02-14T14:00:16;0.00;0.00;0.00
71794;PMS7003;59641;45.188;5.712;2024-02-14T14:02:42;2.00;2.00;1.00
71794;PMS7003;59641;45.188;5.712;2024-02-14T14:05:08;2.80;1.00;1.00
71794;PMS7003;59641;45.188;5.712;2024-02-14T14:07:40;2.00;1.00;0.20
71794;PMS7003;59641;45.188;5.712;2024-02-14T14:10:06;0.80;0.80;0.80
71794;PMS7003;59641;45.188;5.712;2024-02-14T14:12:34;1.00;1.00;1.00
71794;PMS7003;59641;45.188;5.712;2024-02-14T14:15:00;0.00;0.00;0.00